M/V Crosby Hustler — WDA3941 — position and weather

sailwx.info

Track history (hours):
 
Tides and Currents Weather Stations Pressure Air Temp Water Temp Dewpoint Dewpoint Depression Visibility Wind Speed Wind Dir Waves Ship Positions

M/V Crosby Hustler

More information available from US FCC via Universal Licensing System and Coast Guard Vessel Documentation Center.

Last reported at 2014-Aug-15 23:22 UTC. Time now 2014-Aug-21 04:27 UTC.
Position N 29°29' W 094°52'.

Length 18 m; draft 9 m.

Type: Tug. MMSI: 366804030.

Date/timePositionNaut miles runAvg speedWind from/ knotsBaromVisibWave heightAir tempDewpointWater temp
2014-Aug-15 23:22N 29°29' W 094°52'5 5.8
2014-Aug-15 22:33N 29°33' W 094°55'6 5.6
2014-Aug-15 21:33N 29°38' W 094°58'6 5.7
2014-Aug-15 20:33N 29°43' W 095°01'4 4.5
2014-Aug-15 19:33N 29°45' W 095°06'5 5.3
2014-Aug-15 18:33N 29°45' W 095°12'3 2.7
2014-Aug-15 17:32N 29°43' W 095°14'0 0.0
2014-Aug-15 16:32N 29°43' W 095°14'0 0.0
2014-Aug-15 15:32N 29°43' W 095°14'0 0.0
2014-Aug-15 14:32N 29°43' W 095°14'0 0.0
2014-Aug-15 13:32N 29°43' W 095°14'0 0.0
2014-Aug-15 12:32N 29°43' W 095°14'0 0.0
2014-Aug-15 11:32N 29°43' W 095°14'0 0.0
2014-Aug-15 10:32N 29°43' W 095°14'0 0.0
2014-Aug-15 09:32N 29°43' W 095°14'0 0.0
2014-Aug-15 08:29N 29°43' W 095°14'0 0.0
2014-Aug-15 07:32N 29°43' W 095°14'0 0.0
2014-Aug-15 06:32N 29°43' W 095°14'0 0.0
2014-Aug-15 05:32N 29°43' W 095°14'0 0.0
2014-Aug-15 04:32N 29°43' W 095°14'0 0.0
2014-Aug-15 03:32N 29°43' W 095°14'0 0.0
2014-Aug-15 02:32N 29°43' W 095°14'0 0.1
2014-Aug-15 01:32N 29°43' W 095°14'4 3.7
2014-Aug-15 00:33N 29°45' W 095°11'4 4.3
2014-Aug-14 23:33N 29°46' W 095°06'2 1.8
2014-Aug-14 22:33N 29°44' W 095°07'6 6.2
2014-Aug-14 21:33N 29°43' W 095°14'1 0.5
2014-Aug-14 20:33N 29°43' W 095°14'0 0.0
2014-Aug-14 19:33N 29°43' W 095°14'0 0.0
2014-Aug-14 18:33N 29°43' W 095°14'0 0.0
2014-Aug-14 17:33N 29°43' W 095°14'0 0.0
2014-Aug-14 16:33N 29°43' W 095°14'0 0.0
2014-Aug-14 15:33N 29°43' W 095°14'0 0.0
2014-Aug-14 14:33N 29°43' W 095°14'0 0.0
2014-Aug-14 13:33N 29°43' W 095°14'0 0.0
2014-Aug-14 12:33N 29°43' W 095°14'0 0.0
2014-Aug-14 11:33N 29°43' W 095°14'0 0.0
2014-Aug-14 10:33N 29°43' W 095°14'0 0.0
2014-Aug-14 09:33N 29°43' W 095°14'0 0.0
2014-Aug-14 08:33N 29°43' W 095°14'0 0.0
2014-Aug-14 07:33N 29°43' W 095°14'0 0.0
2014-Aug-14 06:33N 29°43' W 095°14'0 0.0
2014-Aug-14 05:30N 29°43' W 095°14'865911.1
2014-Aug-14 04:33N 29°43' W 111°51'865864.8
2014-Aug-14 03:33N 29°43' W 095°14'0 0.0
2014-Aug-14 02:33N 29°43' W 095°14'0 0.0
2014-Aug-14 01:33N 29°43' W 095°14'0 0.0
2014-Aug-14 00:33N 29°43' W 095°14'0 0.0
2014-Aug-13 23:33N 29°43' W 095°14'0 0.0
2014-Aug-13 22:33N 29°43' W 095°14'4 3.8
2014-Aug-13 21:33N 29°45' W 095°11'4 4.2
2014-Aug-13 20:33N 29°46' W 095°06'1 0.7
2014-Aug-13 19:32N 29°47' W 095°06'1 1.3
2014-Aug-13 18:33N 29°46' W 095°05'1 1.4
2014-Aug-13 17:32N 29°48' W 095°04'0 0.0
2014-Aug-13 16:32N 29°48' W 095°04'0 0.0
2014-Aug-13 15:32N 29°48' W 095°04'0 0.0
2014-Aug-13 14:32N 29°48' W 095°04'0 0.0
2014-Aug-13 13:32N 29°48' W 095°04'0 0.0
2014-Aug-13 12:32N 29°48' W 095°04'0 0.0
2014-Aug-13 11:32N 29°48' W 095°04'0 0.0
2014-Aug-13 10:32N 29°48' W 095°04'0 0.0
2014-Aug-13 09:32N 29°48' W 095°04'0 0.0
2014-Aug-13 08:32N 29°48' W 095°04'0 0.0
2014-Aug-13 07:32N 29°48' W 095°04'2 2.0
2014-Aug-13 06:33N 29°46' W 095°04'5 4.5
2014-Aug-13 05:33N 29°42' W 095°01'4 4.1
2014-Aug-13 04:33N 29°41' W 094°56'2 1.4
2014-Aug-13 03:28N 29°42' W 094°56'1 1.1
2014-Aug-13 02:24N 29°43' W 094°57'2 0.9
2014-Aug-13 00:31N 29°44' W 094°56'2 2.5
2014-Aug-12 23:33N 29°42' W 094°55'4 4.3
2014-Aug-12 22:33N 29°42' W 094°60'7 6.7
2014-Aug-12 21:32N 29°46' W 095°06'0 0.5
2014-Aug-12 20:32N 29°47' W 095°06'0 0.0
2014-Aug-12 19:32N 29°47' W 095°06'0 0.0
2014-Aug-12 18:29N 29°47' W 095°06'0 0.0
2014-Aug-12 17:32N 29°47' W 095°06'0 0.0
2014-Aug-12 16:32N 29°47' W 095°06'0 0.0
2014-Aug-12 15:32N 29°47' W 095°06'0 0.0
2014-Aug-12 14:33N 29°47' W 095°06'0 0.0
2014-Aug-12 13:30N 29°47' W 095°06'0 0.0
2014-Aug-12 12:33N 29°47' W 095°06'0 0.5
2014-Aug-12 11:32N 29°46' W 095°06'0 0.5
2014-Aug-12 10:31N 29°47' W 095°06'0 0.0
2014-Aug-12 09:31N 29°47' W 095°06'0 0.0
2014-Aug-12 08:31N 29°47' W 095°06'0 0.0
2014-Aug-12 07:31N 29°47' W 095°06'0 0.0
2014-Aug-12 06:31N 29°47' W 095°06'0 0.0
2014-Aug-12 05:31N 29°47' W 095°06'0 0.0
2014-Aug-12 04:31N 29°47' W 095°06'0 0.0
2014-Aug-12 03:31N 29°47' W 095°06'0 0.0
2014-Aug-12 02:31N 29°47' W 095°06'0 0.0
2014-Aug-12 01:28N 29°47' W 095°06'0 0.0
2014-Aug-12 00:22N 29°47' W 095°06'0 0.0
2014-Aug-11 23:31N 29°47' W 095°06'0 0.0
2014-Aug-11 22:31N 29°47' W 095°06'1 1.0
2014-Aug-11 21:33N 29°46' W 095°06'2 2.2
2014-Aug-11 20:33N 29°48' W 095°04'0 0.0
2014-Aug-11 19:29N 29°48' W 095°04'3 2.9
2014-Aug-11 18:32N 29°46' W 095°06'1 1.4
2014-Aug-11 17:33N 29°46' W 095°05'1 1.4
2014-Aug-11 16:29N 29°48' W 095°04'0 0.0
2014-Aug-11 15:32N 29°48' W 095°04'0 0.0
2014-Aug-11 14:32N 29°48' W 095°04'0 0.0
2014-Aug-11 13:32N 29°48' W 095°04'0 0.0
2014-Aug-11 12:29N 29°48' W 095°04'0 0.0
2014-Aug-11 11:32N 29°48' W 095°04'0 0.0
2014-Aug-11 10:32N 29°48' W 095°04'2 1.9
2014-Aug-11 09:33N 29°46' W 095°05'5 4.9
2014-Aug-11 08:33N 29°42' W 095°01'6 5.5
2014-Aug-11 07:33N 29°38' W 094°58'7 6.3
2014-Aug-11 06:25N 29°32' W 094°53'11 5.4
2014-Aug-11 04:26N 29°22' W 094°48'  
2014-Aug-06 22:19N 29°29' W 094°52'5 6.5
2014-Aug-06 21:33N 29°33' W 094°54'6 6.1
2014-Aug-06 20:33N 29°38' W 094°58'6 5.9
2014-Aug-06 19:33N 29°43' W 095°01'5 5.0
2014-Aug-06 18:33N 29°46' W 095°06'1 0.6
2014-Aug-06 17:31N 29°47' W 095°06'0 0.0
2014-Aug-06 16:31N 29°47' W 095°06'0 0.0
2014-Aug-06 15:31N 29°47' W 095°06'0 0.0
2014-Aug-06 14:31N 29°47' W 095°06'0 0.0
2014-Aug-06 13:31N 29°47' W 095°06'0 0.0
2014-Aug-06 12:31N 29°47' W 095°06'0 0.0
2014-Aug-06 11:31N 29°47' W 095°06'0 0.0
2014-Aug-06 10:31N 29°47' W 095°06'0 0.0
2014-Aug-06 09:31N 29°47' W 095°06'0 0.0
2014-Aug-06 08:31N 29°47' W 095°06'0 0.0
2014-Aug-06 07:31N 29°47' W 095°06'0 0.0
2014-Aug-06 06:31N 29°47' W 095°06'0 0.0
2014-Aug-06 05:31N 29°47' W 095°06'0 0.0
2014-Aug-06 04:28N 29°47' W 095°06'0 0.0
2014-Aug-06 03:31N 29°47' W 095°06'0 0.0
2014-Aug-06 02:31N 29°47' W 095°06'0 0.0
2014-Aug-06 01:28N 29°47' W 095°06'0 0.0
2014-Aug-06 00:31N 29°47' W 095°06'0 0.0
2014-Aug-05 23:31N 29°47' W 095°06'  
Track history (hours):
 
Tides and Currents Weather Stations Pressure Air Temp Water Temp Dewpoint Dewpoint Depression Visibility Wind Speed Wind Dir Waves Ship Positions

M/V Crosby Hustler

More information available from US FCC via Universal Licensing System and Coast Guard Vessel Documentation Center.

Last reported at 2014-Aug-15 23:22 UTC. Time now 2014-Aug-21 04:27 UTC.
Position N 29°29' W 094°52'.

Length 18 m; draft 9 m.

Type: Tug. MMSI: 366804030.

Date/timePositionNaut miles runAvg speedWind from/ knotsBaromVisibWave heightAir tempDewpointWater temp
2014-Aug-15 23:22N 29°29' W 094°52'5 5.8
2014-Aug-15 22:33N 29°33' W 094°55'6 5.6
2014-Aug-15 21:33N 29°38' W 094°58'6 5.7
2014-Aug-15 20:33N 29°43' W 095°01'4 4.5
2014-Aug-15 19:33N 29°45' W 095°06'5 5.3
2014-Aug-15 18:33N 29°45' W 095°12'3 2.7
2014-Aug-15 17:32N 29°43' W 095°14'0 0.0
2014-Aug-15 16:32N 29°43' W 095°14'0 0.0
2014-Aug-15 15:32N 29°43' W 095°14'0 0.0
2014-Aug-15 14:32N 29°43' W 095°14'0 0.0
2014-Aug-15 13:32N 29°43' W 095°14'0 0.0
2014-Aug-15 12:32N 29°43' W 095°14'0 0.0
2014-Aug-15 11:32N 29°43' W 095°14'0 0.0
2014-Aug-15 10:32N 29°43' W 095°14'0 0.0
2014-Aug-15 09:32N 29°43' W 095°14'0 0.0
2014-Aug-15 08:29N 29°43' W 095°14'0 0.0
2014-Aug-15 07:32N 29°43' W 095°14'0 0.0
2014-Aug-15 06:32N 29°43' W 095°14'0 0.0
2014-Aug-15 05:32N 29°43' W 095°14'0 0.0
2014-Aug-15 04:32N 29°43' W 095°14'0 0.0
2014-Aug-15 03:32N 29°43' W 095°14'0 0.0
2014-Aug-15 02:32N 29°43' W 095°14'0 0.1
2014-Aug-15 01:32N 29°43' W 095°14'4 3.7
2014-Aug-15 00:33N 29°45' W 095°11'4 4.3
2014-Aug-14 23:33N 29°46' W 095°06'2 1.8
2014-Aug-14 22:33N 29°44' W 095°07'6 6.2
2014-Aug-14 21:33N 29°43' W 095°14'1 0.5
2014-Aug-14 20:33N 29°43' W 095°14'0 0.0
2014-Aug-14 19:33N 29°43' W 095°14'0 0.0
2014-Aug-14 18:33N 29°43' W 095°14'0 0.0
2014-Aug-14 17:33N 29°43' W 095°14'0 0.0
2014-Aug-14 16:33N 29°43' W 095°14'0 0.0
2014-Aug-14 15:33N 29°43' W 095°14'0 0.0
2014-Aug-14 14:33N 29°43' W 095°14'0 0.0
2014-Aug-14 13:33N 29°43' W 095°14'0 0.0
2014-Aug-14 12:33N 29°43' W 095°14'0 0.0
2014-Aug-14 11:33N 29°43' W 095°14'0 0.0
2014-Aug-14 10:33N 29°43' W 095°14'0 0.0
2014-Aug-14 09:33N 29°43' W 095°14'0 0.0
2014-Aug-14 08:33N 29°43' W 095°14'0 0.0
2014-Aug-14 07:33N 29°43' W 095°14'0 0.0
2014-Aug-14 06:33N 29°43' W 095°14'0 0.0
2014-Aug-14 05:30N 29°43' W 095°14'865911.1
2014-Aug-14 04:33N 29°43' W 111°51'865864.8
2014-Aug-14 03:33N 29°43' W 095°14'0 0.0
2014-Aug-14 02:33N 29°43' W 095°14'0 0.0
2014-Aug-14 01:33N 29°43' W 095°14'0 0.0
2014-Aug-14 00:33N 29°43' W 095°14'0 0.0
2014-Aug-13 23:33N 29°43' W 095°14'0 0.0
2014-Aug-13 22:33N 29°43' W 095°14'4 3.8
2014-Aug-13 21:33N 29°45' W 095°11'4 4.2
2014-Aug-13 20:33N 29°46' W 095°06'1 0.7
2014-Aug-13 19:32N 29°47' W 095°06'1 1.3
2014-Aug-13 18:33N 29°46' W 095°05'1 1.4
2014-Aug-13 17:32N 29°48' W 095°04'0 0.0
2014-Aug-13 16:32N 29°48' W 095°04'0 0.0
2014-Aug-13 15:32N 29°48' W 095°04'0 0.0
2014-Aug-13 14:32N 29°48' W 095°04'0 0.0
2014-Aug-13 13:32N 29°48' W 095°04'0 0.0
2014-Aug-13 12:32N 29°48' W 095°04'0 0.0
2014-Aug-13 11:32N 29°48' W 095°04'0 0.0
2014-Aug-13 10:32N 29°48' W 095°04'0 0.0
2014-Aug-13 09:32N 29°48' W 095°04'0 0.0
2014-Aug-13 08:32N 29°48' W 095°04'0 0.0
2014-Aug-13 07:32N 29°48' W 095°04'2 2.0
2014-Aug-13 06:33N 29°46' W 095°04'5 4.5
2014-Aug-13 05:33N 29°42' W 095°01'4 4.1
2014-Aug-13 04:33N 29°41' W 094°56'2 1.4
2014-Aug-13 03:28N 29°42' W 094°56'1 1.1
2014-Aug-13 02:24N 29°43' W 094°57'2 0.9
2014-Aug-13 00:31N 29°44' W 094°56'2 2.5
2014-Aug-12 23:33N 29°42' W 094°55'4 4.3
2014-Aug-12 22:33N 29°42' W 094°60'7 6.7
2014-Aug-12 21:32N 29°46' W 095°06'0 0.5
2014-Aug-12 20:32N 29°47' W 095°06'0 0.0
2014-Aug-12 19:32N 29°47' W 095°06'0 0.0
2014-Aug-12 18:29N 29°47' W 095°06'0 0.0
2014-Aug-12 17:32N 29°47' W 095°06'0 0.0
2014-Aug-12 16:32N 29°47' W 095°06'0 0.0
2014-Aug-12 15:32N 29°47' W 095°06'0 0.0
2014-Aug-12 14:33N 29°47' W 095°06'0 0.0
2014-Aug-12 13:30N 29°47' W 095°06'0 0.0
2014-Aug-12 12:33N 29°47' W 095°06'0 0.5
2014-Aug-12 11:32N 29°46' W 095°06'0 0.5
2014-Aug-12 10:31N 29°47' W 095°06'0 0.0
2014-Aug-12 09:31N 29°47' W 095°06'0 0.0
2014-Aug-12 08:31N 29°47' W 095°06'0 0.0
2014-Aug-12 07:31N 29°47' W 095°06'0 0.0
2014-Aug-12 06:31N 29°47' W 095°06'0 0.0
2014-Aug-12 05:31N 29°47' W 095°06'0 0.0
2014-Aug-12 04:31N 29°47' W 095°06'0 0.0
2014-Aug-12 03:31N 29°47' W 095°06'0 0.0
2014-Aug-12 02:31N 29°47' W 095°06'0 0.0
2014-Aug-12 01:28N 29°47' W 095°06'0 0.0
2014-Aug-12 00:22N 29°47' W 095°06'0 0.0
2014-Aug-11 23:31N 29°47' W 095°06'0 0.0
2014-Aug-11 22:31N 29°47' W 095°06'1 1.0
2014-Aug-11 21:33N 29°46' W 095°06'2 2.2
2014-Aug-11 20:33N 29°48' W 095°04'0 0.0
2014-Aug-11 19:29N 29°48' W 095°04'3 2.9
2014-Aug-11 18:32N 29°46' W 095°06'1 1.4
2014-Aug-11 17:33N 29°46' W 095°05'1 1.4
2014-Aug-11 16:29N 29°48' W 095°04'0 0.0
2014-Aug-11 15:32N 29°48' W 095°04'0 0.0
2014-Aug-11 14:32N 29°48' W 095°04'0 0.0
2014-Aug-11 13:32N 29°48' W 095°04'0 0.0
2014-Aug-11 12:29N 29°48' W 095°04'0 0.0
2014-Aug-11 11:32N 29°48' W 095°04'0 0.0
2014-Aug-11 10:32N 29°48' W 095°04'2 1.9
2014-Aug-11 09:33N 29°46' W 095°05'5 4.9
2014-Aug-11 08:33N 29°42' W 095°01'6 5.5
2014-Aug-11 07:33N 29°38' W 094°58'7 6.3
2014-Aug-11 06:25N 29°32' W 094°53'11 5.4
2014-Aug-11 04:26N 29°22' W 094°48'  
2014-Aug-06 22:19N 29°29' W 094°52'5 6.5
2014-Aug-06 21:33N 29°33' W 094°54'6 6.1
2014-Aug-06 20:33N 29°38' W 094°58'6 5.9
2014-Aug-06 19:33N 29°43' W 095°01'5 5.0
2014-Aug-06 18:33N 29°46' W 095°06'1 0.6
2014-Aug-06 17:31N 29°47' W 095°06'0 0.0
2014-Aug-06 16:31N 29°47' W 095°06'0 0.0
2014-Aug-06 15:31N 29°47' W 095°06'0 0.0
2014-Aug-06 14:31N 29°47' W 095°06'0 0.0
2014-Aug-06 13:31N 29°47' W 095°06'0 0.0
2014-Aug-06 12:31N 29°47' W 095°06'0 0.0
2014-Aug-06 11:31N 29°47' W 095°06'0 0.0
2014-Aug-06 10:31N 29°47' W 095°06'0 0.0
2014-Aug-06 09:31N 29°47' W 095°06'0 0.0
2014-Aug-06 08:31N 29°47' W 095°06'0 0.0
2014-Aug-06 07:31N 29°47' W 095°06'0 0.0
2014-Aug-06 06:31N 29°47' W 095°06'0 0.0
2014-Aug-06 05:31N 29°47' W 095°06'0 0.0
2014-Aug-06 04:28N 29°47' W 095°06'0 0.0
2014-Aug-06 03:31N 29°47' W 095°06'0 0.0
2014-Aug-06 02:31N 29°47' W 095°06'0 0.0
2014-Aug-06 01:28N 29°47' W 095°06'0 0.0
2014-Aug-06 00:31N 29°47' W 095°06'0 0.0
2014-Aug-05 23:31N 29°47' W 095°06'  

Dump ship's entire track history